createdAt,value
2023-04-03T00:01:27.596Z,19.45
2023-04-03T00:03:55.212Z,19.63
2023-04-03T00:06:22.794Z,19.70
2023-04-03T00:08:50.467Z,19.98
2023-04-03T00:11:18.251Z,20.65
2023-04-03T00:13:45.865Z,21.27
2023-04-03T00:16:13.742Z,20.85
2023-04-03T00:18:49.404Z,21.42
2023-04-03T00:21:21.967Z,21.63
2023-04-03T00:23:49.565Z,20.63
2023-04-03T00:26:19.262Z,21.73
2023-04-03T00:28:59.214Z,21.90
2023-04-03T00:31:29.267Z,20.92
2023-04-03T00:34:14.934Z,20.67
2023-04-03T00:36:43.265Z,20.98
2023-04-03T00:39:11.123Z,19.90
2023-04-03T00:41:38.752Z,20.38
2023-04-03T00:44:15.719Z,20.00
2023-04-03T00:46:51.598Z,20.17
2023-04-03T00:49:23.426Z,20.27
2023-04-03T00:51:56.754Z,20.15
2023-04-03T00:54:26.319Z,20.63
2023-04-03T00:56:56.661Z,20.30
2023-04-03T00:59:24.343Z,19.15
2023-04-03T01:04:44.237Z,19.38
2023-04-03T01:07:11.789Z,20.42
2023-04-03T01:09:39.413Z,20.10
2023-04-03T01:12:09.865Z,19.80
2023-04-03T01:14:39.464Z,20.90
2023-04-03T01:17:07.068Z,20.25
2023-04-03T01:19:41.755Z,20.02
2023-04-03T01:22:09.920Z,19.65
2023-04-03T01:24:43.813Z,19.85
2023-04-03T01:27:15.851Z,19.10
2023-04-03T01:29:43.557Z,19.35
2023-04-03T01:32:11.351Z,20.55
2023-04-03T01:34:44.223Z,21.15
2023-04-03T01:37:17.391Z,20.38
2023-04-03T01:42:30.379Z,20.05
2023-04-03T01:44:59.377Z,20.65
2023-04-03T01:47:26.925Z,20.83
2023-04-03T01:49:54.920Z,20.25
2023-04-03T01:52:22.430Z,20.45
2023-04-03T01:54:52.176Z,21.05
2023-04-03T01:57:21.041Z,19.88
2023-04-03T01:59:52.228Z,19.38
2023-04-03T02:02:20.675Z,19.83
2023-04-03T02:04:55.143Z,19.17
2023-04-03T02:07:22.771Z,19.90
2023-04-03T02:09:59.418Z,20.73
2023-04-03T02:12:29.263Z,20.90
2023-04-03T02:14:59.831Z,20.50
2023-04-03T02:17:46.460Z,20.40
2023-04-03T02:20:14.761Z,20.60
2023-04-03T02:22:45.214Z,20.98
2023-04-03T02:25:12.758Z,20.65
2023-04-03T02:27:40.403Z,21.08
2023-04-03T02:30:08.400Z,21.23
2023-04-03T02:32:36.055Z,21.38
2023-04-03T02:35:03.801Z,20.60
2023-04-03T02:37:38.737Z,21.75
2023-04-03T02:40:06.276Z,20.95
2023-04-03T02:42:34.049Z,20.67
2023-04-03T02:45:04.221Z,21.42
2023-04-03T02:50:24.995Z,21.80
2023-04-03T02:52:52.657Z,20.08
2023-04-03T02:55:20.491Z,19.85
2023-04-03T02:57:50.537Z,20.73
2023-04-03T03:00:18.280Z,21.20
2023-04-03T03:02:50.005Z,22.25
2023-04-03T03:05:20.074Z,22.00
2023-04-03T03:07:47.738Z,22.08
2023-04-03T03:10:15.274Z,20.27
2023-04-03T03:12:45.218Z,21.33
2023-04-03T03:15:12.951Z,21.10
2023-04-03T03:17:40.593Z,21.20
2023-04-03T03:20:10.362Z,22.05
2023-04-03T03:22:39.549Z,20.90
2023-04-03T03:25:07.174Z,21.80
2023-04-03T03:27:36.406Z,21.00
2023-04-03T03:30:04.043Z,21.13
2023-04-03T03:32:40.698Z,21.70
2023-04-03T03:35:10.586Z,21.17
2023-04-03T03:37:38.173Z,21.65
2023-04-03T03:40:05.755Z,21.15
2023-04-03T03:42:38.185Z,20.58
2023-04-03T03:45:05.770Z,20.25
2023-04-03T03:47:35.700Z,20.75
2023-04-03T03:50:08.853Z,20.92
2023-04-03T03:52:38.036Z,20.53
2023-04-03T03:55:15.130Z,20.40
2023-04-03T03:57:46.049Z,21.02
2023-04-03T04:00:13.616Z,19.60
2023-04-03T04:02:41.260Z,20.50
2023-04-03T04:05:09.372Z,20.50
2023-04-03T04:07:39.029Z,19.17
2023-04-03T04:10:06.581Z,20.63
2023-04-03T04:12:36.684Z,19.05
2023-04-03T04:15:04.254Z,19.00
2023-04-03T04:17:33.438Z,21.10
2023-04-03T04:20:08.606Z,19.60
2023-04-03T04:22:43.669Z,18.52
2023-04-03T04:25:14.136Z,19.17
2023-04-03T04:27:41.717Z,19.13
2023-04-03T04:30:15.226Z,19.67
2023-04-03T04:32:45.396Z,19.15
2023-04-03T04:35:20.758Z,19.30
2023-04-03T04:37:53.507Z,18.92
2023-04-03T04:40:23.506Z,18.90
2023-04-03T04:42:51.182Z,17.88
2023-04-03T04:45:20.607Z,17.95
2023-04-03T04:47:48.388Z,18.33
2023-04-03T04:50:16.075Z,18.50
2023-04-03T04:52:46.056Z,18.52
2023-04-03T04:57:58.364Z,18.40
2023-04-03T05:00:26.022Z,18.17
2023-04-03T05:02:53.728Z,17.63
2023-04-03T05:05:24.010Z,17.50
2023-04-03T05:07:55.239Z,18.15
2023-04-03T05:10:23.054Z,17.52
2023-04-03T05:12:53.493Z,17.85
2023-04-03T05:15:21.145Z,17.58
2023-04-03T05:17:48.905Z,17.20
2023-04-03T05:20:18.983Z,16.88
2023-04-03T05:22:48.789Z,17.60
2023-04-03T05:25:16.540Z,16.70
2023-04-03T05:27:52.050Z,17.30
2023-04-03T05:30:21.893Z,16.63
2023-04-03T05:32:52.010Z,16.85
2023-04-03T05:35:19.579Z,17.35
2023-04-03T05:37:47.216Z,16.48
2023-04-03T05:40:18.592Z,16.67
2023-04-03T05:45:44.143Z,18.48
2023-04-03T05:48:13.134Z,16.83
2023-04-03T05:50:57.047Z,16.20
2023-04-03T05:53:24.878Z,17.58
2023-04-03T05:55:52.681Z,17.00
2023-04-03T05:58:30.420Z,17.92
2023-04-03T06:00:58.972Z,17.17
2023-04-03T06:03:26.714Z,17.55
2023-04-03T06:05:59.646Z,17.65
2023-04-03T06:08:27.372Z,17.15
2023-04-03T06:10:56.431Z,17.83
2023-04-03T06:13:44.049Z,17.13
2023-04-03T06:16:11.808Z,17.75
2023-04-03T06:18:41.276Z,17.20
2023-04-03T06:21:14.350Z,17.13
2023-04-03T06:23:43.219Z,17.58
2023-04-03T06:26:12.697Z,18.85
2023-04-03T06:28:42.952Z,17.48
2023-04-03T06:31:10.866Z,18.80
2023-04-03T06:33:41.447Z,17.48
2023-04-03T06:36:17.207Z,18.50
2023-04-03T06:38:44.827Z,18.60
2023-04-03T06:41:12.314Z,18.85
2023-04-03T06:43:45.618Z,17.63
2023-04-03T06:46:14.865Z,17.90
2023-04-03T06:48:53.892Z,16.92
2023-04-03T06:51:24.148Z,17.92
2023-04-03T06:53:51.915Z,16.88
2023-04-03T06:56:21.734Z,16.92
2023-04-03T06:58:49.311Z,16.50
2023-04-03T07:01:18.557Z,16.55
2023-04-03T07:03:47.028Z,16.80
2023-04-03T07:06:14.639Z,16.48
2023-04-03T07:08:42.245Z,15.35
2023-04-03T07:11:11.739Z,16.17
2023-04-03T07:13:47.625Z,15.50
2023-04-03T07:16:18.303Z,15.35
2023-04-03T07:18:46.142Z,16.25
2023-04-03T07:21:13.713Z,16.77
2023-04-03T07:23:42.757Z,17.15
2023-04-03T07:26:10.570Z,16.25
2023-04-03T07:28:38.300Z,16.20
2023-04-03T07:31:08.161Z,17.52
2023-04-03T07:33:37.472Z,17.00
2023-04-03T07:36:06.630Z,16.55
2023-04-03T07:38:37.598Z,16.52
2023-04-03T07:41:08.083Z,15.32
2023-04-03T07:43:36.165Z,16.25
2023-04-03T07:46:05.712Z,16.73
2023-04-03T07:48:33.414Z,17.27
2023-04-03T07:51:01.082Z,16.63
2023-04-03T07:53:30.602Z,16.08
2023-04-03T07:55:58.425Z,16.60
2023-04-03T07:58:25.912Z,16.98
2023-04-03T08:00:56.236Z,17.08
2023-04-03T08:03:24.540Z,16.10
2023-04-03T08:05:52.675Z,15.93
2023-04-03T08:08:23.151Z,15.80
2023-04-03T08:10:50.839Z,15.77
2023-04-03T08:13:18.657Z,16.58
2023-04-03T08:15:48.828Z,16.95
2023-04-03T08:18:16.494Z,15.85
2023-04-03T08:20:44.119Z,15.52
2023-04-03T08:23:13.613Z,16.40
2023-04-03T08:25:41.408Z,16.27
2023-04-03T08:28:08.992Z,17.67
2023-04-03T08:30:36.867Z,17.02
2023-04-03T08:33:04.724Z,18.13
2023-04-03T08:35:32.339Z,17.52
2023-04-03T08:38:02.395Z,17.65
2023-04-03T08:40:31.706Z,17.23
2023-04-03T08:43:02.043Z,17.48
2023-04-03T08:45:31.925Z,16.05
2023-04-03T08:48:02.494Z,14.23
2023-04-03T08:50:30.164Z,13.00
2023-04-03T08:53:06.444Z,13.60
2023-04-03T08:55:50.065Z,14.27
2023-04-03T08:58:26.216Z,15.35
2023-04-03T09:01:01.153Z,14.57
2023-04-03T09:03:31.200Z,14.52
2023-04-03T09:05:59.147Z,14.85
2023-04-03T09:08:26.862Z,14.68
2023-04-03T09:10:59.970Z,13.75
2023-04-03T09:13:27.673Z,14.80
2023-04-03T09:15:55.273Z,14.85
2023-04-03T09:18:30.424Z,15.20
2023-04-03T09:20:58.197Z,15.02
2023-04-03T09:23:27.195Z,16.90
2023-04-03T09:26:02.958Z,16.00
2023-04-03T09:31:30.639Z,16.45
2023-04-03T09:33:58.548Z,14.88
2023-04-03T09:36:28.497Z,14.95
2023-04-03T09:41:45.477Z,14.23
2023-04-03T09:44:13.006Z,14.88
2023-04-03T09:46:40.727Z,15.63
2023-04-03T09:49:15.822Z,16.45
2023-04-03T09:51:43.398Z,18.42
2023-04-03T09:54:11.056Z,19.20
2023-04-03T09:56:54.139Z,20.95
2023-04-03T09:59:23.567Z,19.98
2023-04-03T10:01:53.332Z,21.77
2023-04-03T10:04:41.135Z,20.67
2023-04-03T10:07:08.893Z,21.92
2023-04-03T10:09:43.163Z,21.58
2023-04-03T10:12:13.981Z,19.02
2023-04-03T10:14:41.572Z,18.63
2023-04-03T10:17:13.900Z,18.67
2023-04-03T10:19:41.524Z,18.73
2023-04-03T10:22:11.914Z,18.95
2023-04-03T10:24:47.917Z,18.83
2023-04-03T10:27:15.527Z,19.20
2023-04-03T10:29:45.252Z,17.90
2023-04-03T10:32:17.839Z,17.48
2023-04-03T10:34:51.691Z,18.25
2023-04-03T10:37:31.448Z,18.17
2023-04-03T10:40:06.287Z,18.65
2023-04-03T10:42:36.153Z,18.52
2023-04-03T10:45:05.739Z,18.58
2023-04-03T10:47:37.250Z,18.20
2023-04-03T10:50:09.699Z,17.95
2023-04-03T10:52:45.936Z,17.23
2023-04-03T10:55:16.690Z,16.58
2023-04-03T10:57:46.667Z,17.00
2023-04-03T11:00:14.396Z,18.10
2023-04-03T11:02:42.019Z,17.42
2023-04-03T11:05:12.038Z,17.50
2023-04-03T11:07:41.312Z,18.23
2023-04-03T11:10:08.882Z,18.27
2023-04-03T11:12:39.540Z,19.25
2023-04-03T11:15:09.388Z,17.83
2023-04-03T11:20:25.411Z,18.35
2023-04-03T11:22:55.528Z,18.85
2023-04-03T11:25:24.959Z,16.67
2023-04-03T11:27:54.926Z,18.17
2023-04-03T11:30:30.086Z,18.67
2023-04-03T11:32:58.069Z,18.70
2023-04-03T11:35:25.702Z,19.08
2023-04-03T11:37:53.237Z,19.83
2023-04-03T11:51:40.990Z,18.95
2023-04-03T11:54:14.165Z,20.45
2023-04-03T11:56:41.816Z,21.02
2023-04-03T12:02:00.905Z,20.95
2023-04-03T12:07:21.744Z,20.92
2023-04-03T12:10:00.553Z,20.85
2023-04-03T12:12:33.076Z,20.70
2023-04-03T12:15:00.775Z,20.33
2023-04-03T12:26:03.753Z,21.48
2023-04-03T12:28:35.460Z,21.02
2023-04-03T12:31:08.646Z,21.65
2023-04-03T12:39:17.422Z,22.65
2023-04-03T12:50:36.920Z,23.63
2023-04-03T12:53:08.753Z,24.48
2023-04-03T12:55:36.733Z,23.83
2023-04-03T12:58:18.250Z,23.23
2023-04-03T13:00:54.798Z,24.25
2023-04-03T13:09:12.149Z,24.40
2023-04-03T13:11:41.833Z,26.17
2023-04-03T13:14:09.446Z,29.25
2023-04-03T13:16:38.446Z,29.70
2023-04-03T13:19:08.409Z,29.48
2023-04-03T13:21:38.760Z,31.58
2023-04-03T13:24:15.251Z,36.17
2023-04-03T13:26:43.377Z,39.13
2023-04-03T13:29:24.389Z,36.08
2023-04-03T13:31:57.973Z,31.80
2023-04-03T13:34:26.216Z,32.83
2023-04-03T13:36:55.737Z,31.50
2023-04-03T13:39:23.298Z,32.33
2023-04-03T13:41:54.653Z,30.17
2023-04-03T13:44:22.242Z,30.95
2023-04-03T13:46:51.482Z,30.33
2023-04-03T13:49:20.497Z,32.53
2023-04-03T13:51:51.700Z,33.67
2023-04-03T13:54:28.682Z,32.50
2023-04-03T13:56:56.265Z,30.52
2023-04-03T13:59:23.894Z,30.73
2023-04-03T14:01:58.671Z,31.55
2023-04-03T14:04:27.737Z,32.53
2023-04-03T14:06:58.186Z,32.90
2023-04-03T14:09:26.142Z,32.53
2023-04-03T14:11:53.711Z,33.67
2023-04-03T14:14:21.332Z,32.03
2023-04-03T14:16:54.266Z,29.15
2023-04-03T14:19:23.780Z,29.20
2023-04-03T14:21:51.355Z,29.40
2023-04-03T14:24:24.460Z,29.50
2023-04-03T14:26:52.115Z,28.50
2023-04-03T14:29:21.515Z,28.30
2023-04-03T14:31:57.761Z,28.85
2023-04-03T14:34:33.834Z,29.52
2023-04-03T14:37:08.503Z,28.60
2023-04-03T14:39:37.058Z,28.52
2023-04-03T14:42:04.702Z,27.80
2023-04-03T14:44:34.843Z,27.38
2023-04-03T14:47:05.336Z,26.70
2023-04-03T14:49:51.318Z,27.20
2023-04-03T14:52:19.072Z,26.17
2023-04-03T14:54:49.549Z,27.38
2023-04-03T14:57:20.281Z,26.58
2023-04-03T14:59:50.672Z,27.50
2023-04-03T15:02:18.441Z,26.15
2023-04-03T15:04:46.082Z,28.40
2023-04-03T15:07:15.747Z,28.63
2023-04-03T15:09:43.342Z,27.55
2023-04-03T15:12:10.867Z,27.52
2023-04-03T15:14:52.414Z,26.70
2023-04-03T15:17:25.178Z,27.67
2023-04-03T15:19:57.321Z,27.50
2023-04-03T15:22:26.830Z,26.17
2023-04-03T15:25:05.963Z,26.17
2023-04-03T15:27:35.608Z,26.75
2023-04-03T15:30:05.979Z,27.17
2023-04-03T15:32:33.594Z,25.23
2023-04-03T15:35:01.220Z,25.42
2023-04-03T15:37:34.271Z,27.30
2023-04-03T15:40:01.930Z,27.35
2023-04-03T15:42:29.572Z,25.63
2023-04-03T15:44:59.804Z,26.20
2023-04-03T15:47:31.958Z,25.52
2023-04-03T15:50:02.544Z,25.83
2023-04-03T15:52:33.049Z,25.73
2023-04-03T15:55:00.725Z,25.75
2023-04-03T16:00:07.766Z,26.30
2023-04-03T16:02:36.299Z,25.75
2023-04-03T16:05:05.594Z,26.30
2023-04-03T16:07:35.654Z,26.48
2023-04-03T16:10:03.569Z,26.30
2023-04-03T16:12:31.393Z,24.58
2023-04-03T16:15:01.654Z,25.15
2023-04-03T16:17:29.586Z,26.02
2023-04-03T16:20:02.453Z,24.58
2023-04-03T16:22:34.748Z,24.07
2023-04-03T16:25:02.332Z,23.30
2023-04-03T16:27:30.094Z,23.45
2023-04-03T16:29:59.627Z,22.02
2023-04-03T16:32:27.337Z,24.20
2023-04-03T16:37:31.044Z,23.80
2023-04-03T16:39:59.792Z,23.60
2023-04-03T16:42:27.496Z,23.88
2023-04-03T16:44:57.503Z,24.10
2023-04-03T16:47:25.106Z,23.58
2023-04-03T16:49:52.701Z,22.35
2023-04-03T16:52:25.595Z,22.40
2023-04-03T16:54:53.360Z,22.73
2023-04-03T16:57:23.765Z,23.10
2023-04-03T16:59:59.171Z,22.33
2023-04-03T17:02:38.509Z,22.73
2023-04-03T17:05:06.671Z,22.83
2023-04-03T17:07:36.769Z,23.35
2023-04-03T17:10:04.447Z,21.77
2023-04-03T17:12:36.286Z,23.10
2023-04-03T17:15:03.957Z,24.25
2023-04-03T17:17:31.762Z,24.08
2023-04-03T17:20:01.608Z,22.65
2023-04-03T17:22:32.078Z,24.05
2023-04-03T17:25:02.005Z,21.98
2023-04-03T17:27:31.803Z,23.05
2023-04-03T17:30:01.945Z,23.02
2023-04-03T17:32:35.578Z,22.00
2023-04-03T17:37:34.878Z,21.85
2023-04-03T17:40:14.817Z,21.83
2023-04-03T17:42:52.764Z,21.77
2023-04-03T17:45:20.445Z,22.63
2023-04-03T17:47:48.711Z,21.98
2023-04-03T18:01:34.521Z,21.15
2023-04-03T18:07:01.433Z,22.25
2023-04-03T18:09:43.810Z,22.20
2023-04-03T18:15:06.206Z,22.33
2023-04-03T18:17:36.023Z,22.90
2023-04-03T18:20:20.024Z,22.27
2023-04-03T18:25:45.668Z,22.38
2023-04-03T18:28:16.275Z,22.55
2023-04-03T18:31:01.241Z,20.95
2023-04-03T18:33:29.511Z,22.10
2023-04-03T18:35:57.059Z,22.55
2023-04-03T18:38:30.800Z,22.15
2023-04-03T18:43:30.279Z,20.75
2023-04-03T18:46:00.571Z,21.13
2023-04-03T18:48:29.455Z,21.30
2023-04-03T18:50:58.669Z,21.60
2023-04-03T18:53:37.726Z,22.10
2023-04-03T18:56:05.425Z,23.00
2023-04-03T18:58:36.274Z,21.73
2023-04-03T19:01:06.162Z,21.88
2023-04-03T19:03:35.358Z,21.17
2023-04-03T19:06:05.877Z,21.70
2023-04-03T19:08:33.478Z,21.80
2023-04-03T19:11:03.850Z,21.33
2023-04-03T19:16:25.416Z,22.40
2023-04-03T19:18:58.050Z,22.58
2023-04-03T19:21:25.690Z,22.95
2023-04-03T19:23:53.342Z,22.05
2023-04-03T19:26:23.377Z,22.20
2023-04-03T19:28:51.202Z,23.17
2023-04-03T19:31:18.744Z,21.83
2023-04-03T19:33:55.944Z,22.80
2023-04-03T19:36:23.598Z,22.13
2023-04-03T19:38:54.047Z,22.75
2023-04-03T19:41:21.674Z,22.90
2023-04-03T19:43:49.352Z,22.15
2023-04-03T19:46:19.247Z,23.00
2023-04-03T19:48:51.865Z,22.27
2023-04-03T19:51:19.439Z,21.42
2023-04-03T19:53:55.932Z,23.63
2023-04-03T19:56:23.671Z,22.92
2023-04-03T19:58:56.360Z,23.17
2023-04-03T20:01:24.000Z,22.05
2023-04-03T20:03:53.082Z,21.95
2023-04-03T20:06:30.384Z,22.20
2023-04-03T20:09:02.461Z,21.85
2023-04-03T20:11:34.355Z,22.30
2023-04-03T20:14:07.630Z,23.50
2023-04-03T20:16:39.287Z,22.63
2023-04-03T20:19:16.175Z,23.25
2023-04-03T20:21:48.758Z,22.25
2023-04-03T20:24:19.345Z,22.20
2023-04-03T20:26:46.800Z,23.23
2023-04-03T20:29:18.519Z,23.30
2023-04-03T20:31:48.673Z,21.92
2023-04-03T20:34:18.272Z,23.55
2023-04-03T20:36:50.156Z,23.73
2023-04-03T20:42:05.368Z,23.98
2023-04-03T20:44:32.865Z,23.45
2023-04-03T20:47:00.596Z,24.02
2023-04-03T20:52:26.759Z,25.30
2023-04-03T20:55:01.490Z,24.10
2023-04-03T21:02:50.647Z,24.33
2023-04-03T21:05:21.247Z,24.90
2023-04-03T21:07:51.020Z,23.80
2023-04-03T21:10:18.631Z,24.17
2023-04-03T21:12:46.207Z,24.38
2023-04-03T21:15:15.873Z,24.50
2023-04-03T21:17:43.741Z,25.42
2023-04-03T21:20:13.530Z,25.75
2023-04-03T21:22:43.479Z,23.83
2023-04-03T21:25:11.372Z,24.52
2023-04-03T21:27:39.005Z,23.88
2023-04-03T21:30:08.855Z,24.63
2023-04-03T21:32:36.597Z,25.23
2023-04-03T21:35:04.212Z,25.08
2023-04-03T21:37:34.130Z,24.52
2023-04-03T21:40:01.749Z,25.42
2023-04-03T21:42:31.475Z,26.30
2023-04-03T21:45:01.321Z,26.63
2023-04-03T21:47:29.353Z,37.28
2023-04-03T21:49:56.901Z,45.13
2023-04-03T21:52:26.672Z,41.78
2023-04-03T21:54:54.556Z,33.15
2023-04-03T21:57:22.368Z,39.92
2023-04-03T21:59:56.454Z,43.90
2023-04-03T22:02:27.007Z,33.70
2023-04-03T22:04:56.819Z,30.08
2023-04-03T22:07:26.679Z,30.65
2023-04-03T22:09:54.281Z,27.63
2023-04-03T22:12:21.918Z,27.92
2023-04-03T22:14:51.746Z,28.17
2023-04-03T22:17:20.756Z,29.67
2023-04-03T22:19:52.262Z,32.15
2023-04-03T22:22:22.132Z,28.05
2023-04-03T22:24:49.644Z,29.48
2023-04-03T22:27:17.217Z,27.15
2023-04-03T22:29:47.238Z,26.10
2023-04-03T22:32:14.839Z,26.58
2023-04-03T22:34:42.430Z,25.33
2023-04-03T22:37:12.255Z,27.15
2023-04-03T22:39:39.859Z,26.98
2023-04-03T22:42:11.269Z,27.50
2023-04-03T22:44:40.911Z,29.63
2023-04-03T22:47:08.485Z,29.92
2023-04-03T22:49:36.047Z,31.20
2023-04-03T22:52:04.727Z,30.98
2023-04-03T22:54:32.448Z,31.40
2023-04-03T22:57:00.002Z,33.67
2023-04-03T22:59:28.919Z,32.92
2023-04-03T23:01:56.744Z,34.00
2023-04-03T23:04:24.488Z,34.33
2023-04-03T23:06:54.482Z,32.55
2023-04-03T23:09:22.075Z,31.70
2023-04-03T23:11:49.610Z,32.35
2023-04-03T23:14:23.685Z,30.27
2023-04-03T23:16:51.348Z,31.00
2023-04-03T23:19:19.293Z,32.38
2023-04-03T23:21:49.457Z,32.53
2023-04-03T23:24:18.247Z,32.00
2023-04-03T23:26:47.708Z,32.20
2023-04-03T23:29:22.774Z,31.35
2023-04-03T23:31:51.618Z,34.17
2023-04-03T23:34:26.283Z,32.30
2023-04-03T23:36:56.194Z,32.60
2023-04-03T23:39:25.696Z,33.30
2023-04-03T23:41:55.482Z,33.78
2023-04-03T23:44:23.360Z,31.90
2023-04-03T23:46:53.062Z,32.38
2023-04-03T23:49:22.815Z,30.55
2023-04-03T23:51:50.594Z,31.15
2023-04-03T23:54:18.188Z,30.35
2023-04-03T23:56:50.175Z,30.92
2023-04-03T23:59:26.121Z,30.88
